sensor_id;sensor_type;location;lat;lon;timestamp;temperature;humidity
21121;DHT22;12519;43.318;21.898;2023-08-20T00:03:27;27.0;78.0
21121;DHT22;12519;43.318;21.898;2023-08-20T00:08:06;27.0;78.0
21121;DHT22;12519;43.318;21.898;2023-08-20T00:12:43;26.9;78.0
21121;DHT22;12519;43.318;21.898;2023-08-20T00:17:22;26.9;78.0
21121;DHT22;12519;43.318;21.898;2023-08-20T00:22:01;26.9;78.0
21121;DHT22;12519;43.318;21.898;2023-08-20T00:26:40;26.8;78.0
21121;DHT22;12519;43.318;21.898;2023-08-20T00:31:17;26.8;78.0
21121;DHT22;12519;43.318;21.898;2023-08-20T00:35:54;26.7;78.0
21121;DHT22;12519;43.318;21.898;2023-08-20T00:40:31;26.7;78.0
21121;DHT22;12519;43.318;21.898;2023-08-20T00:45:09;26.5;79.0
21121;DHT22;12519;43.318;21.898;2023-08-20T00:49:48;26.5;79.0
21121;DHT22;12519;43.318;21.898;2023-08-20T00:54:28;26.3;79.0
21121;DHT22;12519;43.318;21.898;2023-08-20T00:59:08;26.3;79.0
21121;DHT22;12519;43.318;21.898;2023-08-20T01:03:46;26.1;79.0
21121;DHT22;12519;43.318;21.898;2023-08-20T01:08:39;26.1;79.0
21121;DHT22;12519;43.318;21.898;2023-08-20T01:13:21;25.9;80.0
21121;DHT22;12519;43.318;21.898;2023-08-20T01:17:58;25.9;80.0
21121;DHT22;12519;43.318;21.898;2023-08-20T01:23:24;26.1;80.0
21121;DHT22;12519;43.318;21.898;2023-08-20T01:28:55;26.1;80.0
21121;DHT22;12519;43.318;21.898;2023-08-20T01:33:34;26.3;79.0
21121;DHT22;12519;43.318;21.898;2023-08-20T01:38:13;26.3;79.0
21121;DHT22;12519;43.318;21.898;2023-08-20T01:42:50;26.4;79.0
21121;DHT22;12519;43.318;21.898;2023-08-20T01:47:26;26.4;79.0
21121;DHT22;12519;43.318;21.898;2023-08-20T01:52:03;26.4;79.0
21121;DHT22;12519;43.318;21.898;2023-08-20T01:56:41;26.6;79.0
21121;DHT22;12519;43.318;21.898;2023-08-20T02:01:17;26.6;79.0
21121;DHT22;12519;43.318;21.898;2023-08-20T02:05:54;26.4;79.0
21121;DHT22;12519;43.318;21.898;2023-08-20T02:10:30;26.4;79.0
21121;DHT22;12519;43.318;21.898;2023-08-20T02:15:09;26.3;80.0
21121;DHT22;12519;43.318;21.898;2023-08-20T02:19:46;26.3;80.0
21121;DHT22;12519;43.318;21.898;2023-08-20T02:24:22;26.2;80.0
21121;DHT22;12519;43.318;21.898;2023-08-20T02:28:59;26.2;80.0
21121;DHT22;12519;43.318;21.898;2023-08-20T02:33:35;26.1;80.0
21121;DHT22;12519;43.318;21.898;2023-08-20T02:38:12;26.1;80.0
21121;DHT22;12519;43.318;21.898;2023-08-20T02:42:48;26.0;80.0
21121;DHT22;12519;43.318;21.898;2023-08-20T02:47:25;26.0;80.0
21121;DHT22;12519;43.318;21.898;2023-08-20T02:52:03;26.0;80.0
21121;DHT22;12519;43.318;21.898;2023-08-20T02:56:41;25.9;81.0
21121;DHT22;12519;43.318;21.898;2023-08-20T03:01:23;25.9;81.0
21121;DHT22;12519;43.318;21.898;2023-08-20T03:06:03;26.2;81.0
21121;DHT22;12519;43.318;21.898;2023-08-20T03:10:39;26.2;81.0
21121;DHT22;12519;43.318;21.898;2023-08-20T03:15:16;26.4;80.0
21121;DHT22;12519;43.318;21.898;2023-08-20T03:19:58;26.4;80.0
21121;DHT22;12519;43.318;21.898;2023-08-20T03:24:36;26.4;80.0
21121;DHT22;12519;43.318;21.898;2023-08-20T03:29:13;26.4;80.0
21121;DHT22;12519;43.318;21.898;2023-08-20T03:33:49;26.4;80.0
21121;DHT22;12519;43.318;21.898;2023-08-20T03:38:26;26.4;80.0
21121;DHT22;12519;43.318;21.898;2023-08-20T03:43:04;26.4;80.0
21121;DHT22;12519;43.318;21.898;2023-08-20T03:47:40;26.4;80.0
21121;DHT22;12519;43.318;21.898;2023-08-20T03:52:17;26.4;80.0
21121;DHT22;12519;43.318;21.898;2023-08-20T03:56:54;26.5;80.0
21121;DHT22;12519;43.318;21.898;2023-08-20T04:01:31;26.5;80.0
21121;DHT22;12519;43.318;21.898;2023-08-20T04:06:08;26.4;80.0
21121;DHT22;12519;43.318;21.898;2023-08-20T04:10:45;26.4;80.0
21121;DHT22;12519;43.318;21.898;2023-08-20T04:15:22;26.4;80.0
21121;DHT22;12519;43.318;21.898;2023-08-20T04:19:59;26.4;80.0
21121;DHT22;12519;43.318;21.898;2023-08-20T04:24:35;26.4;80.0
21121;DHT22;12519;43.318;21.898;2023-08-20T04:29:12;26.4;80.0
21121;DHT22;12519;43.318;21.898;2023-08-20T04:33:48;26.3;81.0
21121;DHT22;12519;43.318;21.898;2023-08-20T04:38:25;26.3;81.0
21121;DHT22;12519;43.318;21.898;2023-08-20T04:43:02;26.4;80.0
21121;DHT22;12519;43.318;21.898;2023-08-20T04:47:39;26.4;80.0
21121;DHT22;12519;43.318;21.898;2023-08-20T04:52:16;26.4;80.0
21121;DHT22;12519;43.318;21.898;2023-08-20T04:56:52;26.5;80.0
21121;DHT22;12519;43.318;21.898;2023-08-20T05:01:29;26.5;80.0
21121;DHT22;12519;43.318;21.898;2023-08-20T05:06:05;26.5;80.0
21121;DHT22;12519;43.318;21.898;2023-08-20T05:10:42;26.5;80.0
21121;DHT22;12519;43.318;21.898;2023-08-20T05:15:19;26.5;81.0
21121;DHT22;12519;43.318;21.898;2023-08-20T05:19:55;26.5;81.0
21121;DHT22;12519;43.318;21.898;2023-08-20T05:24:32;26.3;81.0
21121;DHT22;12519;43.318;21.898;2023-08-20T05:29:08;26.3;81.0
21121;DHT22;12519;43.318;21.898;2023-08-20T05:33:45;26.1;82.0
21121;DHT22;12519;43.318;21.898;2023-08-20T05:38:21;26.1;82.0
21121;DHT22;12519;43.318;21.898;2023-08-20T05:42:58;25.8;82.0
21121;DHT22;12519;43.318;21.898;2023-08-20T05:47:34;25.8;82.0
21121;DHT22;12519;43.318;21.898;2023-08-20T05:52:11;25.8;82.0
21121;DHT22;12519;43.318;21.898;2023-08-20T05:56:47;25.6;83.0
21121;DHT22;12519;43.318;21.898;2023-08-20T06:01:24;25.6;83.0
21121;DHT22;12519;43.318;21.898;2023-08-20T06:06:00;25.5;84.0
21121;DHT22;12519;43.318;21.898;2023-08-20T06:10:37;25.5;84.0
21121;DHT22;12519;43.318;21.898;2023-08-20T06:15:14;25.4;85.0
21121;DHT22;12519;43.318;21.898;2023-08-20T06:19:51;25.4;85.0
21121;DHT22;12519;43.318;21.898;2023-08-20T06:24:28;25.8;84.0
21121;DHT22;12519;43.318;21.898;2023-08-20T06:29:04;25.8;84.0
21121;DHT22;12519;43.318;21.898;2023-08-20T06:33:41;26.1;83.0
21121;DHT22;12519;43.318;21.898;2023-08-20T06:38:18;26.1;83.0
21121;DHT22;12519;43.318;21.898;2023-08-20T06:42:54;26.1;83.0
21121;DHT22;12519;43.318;21.898;2023-08-20T06:47:31;26.3;83.0
21121;DHT22;12519;43.318;21.898;2023-08-20T06:52:08;26.3;83.0
21121;DHT22;12519;43.318;21.898;2023-08-20T06:56:45;26.5;83.0
21121;DHT22;12519;43.318;21.898;2023-08-20T07:01:21;26.5;83.0
21121;DHT22;12519;43.318;21.898;2023-08-20T07:05:58;26.7;82.0
21121;DHT22;12519;43.318;21.898;2023-08-20T07:10:35;26.7;82.0
21121;DHT22;12519;43.318;21.898;2023-08-20T07:15:11;26.9;82.0
21121;DHT22;12519;43.318;21.898;2023-08-20T07:19:48;26.9;82.0
21121;DHT22;12519;43.318;21.898;2023-08-20T07:24:24;26.8;82.0
21121;DHT22;12519;43.318;21.898;2023-08-20T07:29:01;26.8;82.0
21121;DHT22;12519;43.318;21.898;2023-08-20T07:33:37;26.8;82.0
21121;DHT22;12519;43.318;21.898;2023-08-20T07:38:13;26.8;82.0
21121;DHT22;12519;43.318;21.898;2023-08-20T07:42:51;26.8;82.0
21121;DHT22;12519;43.318;21.898;2023-08-20T07:47:27;26.8;81.0
21121;DHT22;12519;43.318;21.898;2023-08-20T07:52:04;26.8;81.0
21121;DHT22;12519;43.318;21.898;2023-08-20T07:56:41;26.8;81.0
21121;DHT22;12519;43.318;21.898;2023-08-20T08:01:17;26.8;81.0
21121;DHT22;12519;43.318;21.898;2023-08-20T08:05:55;27.0;80.0
21121;DHT22;12519;43.318;21.898;2023-08-20T08:10:33;27.0;80.0
21121;DHT22;12519;43.318;21.898;2023-08-20T08:15:10;27.2;80.0
21121;DHT22;12519;43.318;21.898;2023-08-20T08:19:47;27.2;80.0
21121;DHT22;12519;43.318;21.898;2023-08-20T08:24:23;27.6;79.0
21121;DHT22;12519;43.318;21.898;2023-08-20T08:29:00;27.6;79.0
21121;DHT22;12519;43.318;21.898;2023-08-20T08:33:36;28.1;78.0
21121;DHT22;12519;43.318;21.898;2023-08-20T08:38:13;28.1;78.0
21121;DHT22;12519;43.318;21.898;2023-08-20T08:42:49;28.1;78.0
21121;DHT22;12519;43.318;21.898;2023-08-20T08:47:27;28.4;78.0
21121;DHT22;12519;43.318;21.898;2023-08-20T08:52:09;28.4;78.0
21121;DHT22;12519;43.318;21.898;2023-08-20T08:56:48;28.8;77.0
21121;DHT22;12519;43.318;21.898;2023-08-20T09:01:26;28.8;77.0
21121;DHT22;12519;43.318;21.898;2023-08-20T09:06:10;29.2;77.0
21121;DHT22;12519;43.318;21.898;2023-08-20T09:10:51;29.2;77.0
21121;DHT22;12519;43.318;21.898;2023-08-20T09:15:33;29.6;76.0
21121;DHT22;12519;43.318;21.898;2023-08-20T09:20:11;29.6;76.0
21121;DHT22;12519;43.318;21.898;2023-08-20T09:24:56;30.0;74.0
21121;DHT22;12519;43.318;21.898;2023-08-20T09:29:45;30.0;74.0
21121;DHT22;12519;43.318;21.898;2023-08-20T09:34:38;30.4;73.0
21121;DHT22;12519;43.318;21.898;2023-08-20T09:39:14;30.4;73.0
21121;DHT22;12519;43.318;21.898;2023-08-20T09:43:58;30.6;72.0
21121;DHT22;12519;43.318;21.898;2023-08-20T09:48:48;30.6;72.0
21121;DHT22;12519;43.318;21.898;2023-08-20T09:53:45;30.9;72.0
21121;DHT22;12519;43.318;21.898;2023-08-20T09:58:40;30.9;72.0
21121;DHT22;12519;43.318;21.898;2023-08-20T10:03:22;30.9;72.0
21121;DHT22;12519;43.318;21.898;2023-08-20T10:08:01;31.0;72.0
21121;DHT22;12519;43.318;21.898;2023-08-20T10:12:41;31.0;72.0
21121;DHT22;12519;43.318;21.898;2023-08-20T10:17:23;31.1;71.0
21121;DHT22;12519;43.318;21.898;2023-08-20T10:22:03;31.1;71.0
21121;DHT22;12519;43.318;21.898;2023-08-20T10:26:42;31.1;71.0
21121;DHT22;12519;43.318;21.898;2023-08-20T10:31:26;31.1;71.0
21121;DHT22;12519;43.318;21.898;2023-08-20T10:45:44;31.2;69.0
21121;DHT22;12519;43.318;21.898;2023-08-20T10:50:22;31.2;69.0
21121;DHT22;12519;43.318;21.898;2023-08-20T10:55:00;31.2;69.0
21121;DHT22;12519;43.318;21.898;2023-08-20T10:59:41;31.2;69.0
21121;DHT22;12519;43.318;21.898;2023-08-20T11:04:27;31.2;69.0
21121;DHT22;12519;43.318;21.898;2023-08-20T11:09:05;31.2;69.0
21121;DHT22;12519;43.318;21.898;2023-08-20T11:27:30;31.7;68.0
21121;DHT22;12519;43.318;21.898;2023-08-20T11:32:07;31.7;68.0
21121;DHT22;12519;43.318;21.898;2023-08-20T11:36:45;31.7;68.0
21121;DHT22;12519;43.318;21.898;2023-08-20T11:41:25;31.7;68.0
21121;DHT22;12519;43.318;21.898;2023-08-20T11:46:02;31.8;67.0
21121;DHT22;12519;43.318;21.898;2023-08-20T11:50:39;31.8;67.0
21121;DHT22;12519;43.318;21.898;2023-08-20T11:55:24;32.0;67.0
21121;DHT22;12519;43.318;21.898;2023-08-20T12:00:08;32.0;67.0
21121;DHT22;12519;43.318;21.898;2023-08-20T12:05:00;32.2;66.0
21121;DHT22;12519;43.318;21.898;2023-08-20T12:09:38;32.2;66.0
21121;DHT22;12519;43.318;21.898;2023-08-20T12:14:15;32.3;66.0
21121;DHT22;12519;43.318;21.898;2023-08-20T12:18:52;32.3;66.0
21121;DHT22;12519;43.318;21.898;2023-08-20T12:23:29;32.3;66.0
21121;DHT22;12519;43.318;21.898;2023-08-20T12:28:06;32.3;65.0
21121;DHT22;12519;43.318;21.898;2023-08-20T12:32:43;32.3;65.0
21121;DHT22;12519;43.318;21.898;2023-08-20T12:37:19;32.3;65.0
21121;DHT22;12519;43.318;21.898;2023-08-20T12:41:56;32.3;65.0
21121;DHT22;12519;43.318;21.898;2023-08-20T12:46:33;32.5;64.0
21121;DHT22;12519;43.318;21.898;2023-08-20T12:51:10;32.5;64.0
21121;DHT22;12519;43.318;21.898;2023-08-20T12:55:47;32.7;64.0
21121;DHT22;12519;43.318;21.898;2023-08-20T13:00:26;32.7;64.0
21121;DHT22;12519;43.318;21.898;2023-08-20T13:05:07;32.8;63.0
21121;DHT22;12519;43.318;21.898;2023-08-20T13:09:47;32.8;63.0
21121;DHT22;12519;43.318;21.898;2023-08-20T13:14:26;32.8;62.0
21121;DHT22;12519;43.318;21.898;2023-08-20T13:19:07;32.8;62.0
21121;DHT22;12519;43.318;21.898;2023-08-20T13:23:45;32.8;62.0
21121;DHT22;12519;43.318;21.898;2023-08-20T13:28:21;32.8;62.0
21121;DHT22;12519;43.318;21.898;2023-08-20T13:32:58;32.8;62.0
21121;DHT22;12519;43.318;21.898;2023-08-20T13:37:35;32.8;63.0
21121;DHT22;12519;43.318;21.898;2023-08-20T13:42:11;32.8;63.0
21121;DHT22;12519;43.318;21.898;2023-08-20T13:46:48;32.8;62.0
21121;DHT22;12519;43.318;21.898;2023-08-20T13:51:24;32.8;62.0
21121;DHT22;12519;43.318;21.898;2023-08-20T13:56:01;32.9;62.0
21121;DHT22;12519;43.318;21.898;2023-08-20T14:00:37;32.9;62.0
21121;DHT22;12519;43.318;21.898;2023-08-20T14:05:14;32.8;62.0
21121;DHT22;12519;43.318;21.898;2023-08-20T14:09:51;32.8;62.0
21121;DHT22;12519;43.318;21.898;2023-08-20T14:14:27;32.7;62.0
21121;DHT22;12519;43.318;21.898;2023-08-20T14:19:04;32.7;62.0
21121;DHT22;12519;43.318;21.898;2023-08-20T14:23:40;32.7;62.0
21121;DHT22;12519;43.318;21.898;2023-08-20T14:28:17;32.7;62.0
21121;DHT22;12519;43.318;21.898;2023-08-20T14:32:53;32.7;62.0
21121;DHT22;12519;43.318;21.898;2023-08-20T14:46:44;32.5;62.0
21121;DHT22;12519;43.318;21.898;2023-08-20T14:51:21;32.5;62.0
21121;DHT22;12519;43.318;21.898;2023-08-20T14:55:58;32.5;62.0
21121;DHT22;12519;43.318;21.898;2023-08-20T15:00:36;32.5;62.0
21121;DHT22;12519;43.318;21.898;2023-08-20T15:05:14;32.4;63.0
21121;DHT22;12519;43.318;21.898;2023-08-20T15:09:51;32.4;63.0
21121;DHT22;12519;43.318;21.898;2023-08-20T15:14:27;32.2;63.0
21121;DHT22;12519;43.318;21.898;2023-08-20T15:19:04;32.2;63.0
21121;DHT22;12519;43.318;21.898;2023-08-20T15:23:41;32.2;63.0
21121;DHT22;12519;43.318;21.898;2023-08-20T15:28:17;32.2;63.0
21121;DHT22;12519;43.318;21.898;2023-08-20T15:32:53;32.2;63.0
21121;DHT22;12519;43.318;21.898;2023-08-20T15:46:43;31.9;64.0
21121;DHT22;12519;43.318;21.898;2023-08-20T15:51:20;31.9;64.0
21121;DHT22;12519;43.318;21.898;2023-08-20T15:55:56;31.9;64.0
21121;DHT22;12519;43.318;21.898;2023-08-20T16:00:33;31.9;64.0
21121;DHT22;12519;43.318;21.898;2023-08-20T16:05:10;31.8;64.0
21121;DHT22;12519;43.318;21.898;2023-08-20T16:09:46;31.8;64.0
21121;DHT22;12519;43.318;21.898;2023-08-20T16:14:24;31.6;64.0
21121;DHT22;12519;43.318;21.898;2023-08-20T16:19:01;31.6;64.0
21121;DHT22;12519;43.318;21.898;2023-08-20T16:23:38;31.6;64.0
21121;DHT22;12519;43.318;21.898;2023-08-20T16:28:14;31.4;64.0
21121;DHT22;12519;43.318;21.898;2023-08-20T16:32:50;31.4;64.0
21121;DHT22;12519;43.318;21.898;2023-08-20T16:37:27;31.3;64.0
21121;DHT22;12519;43.318;21.898;2023-08-20T16:42:04;31.3;64.0
21121;DHT22;12519;43.318;21.898;2023-08-20T16:46:40;31.2;64.0
21121;DHT22;12519;43.318;21.898;2023-08-20T16:51:16;31.2;64.0
21121;DHT22;12519;43.318;21.898;2023-08-20T16:55:55;31.0;64.0
21121;DHT22;12519;43.318;21.898;2023-08-20T17:00:32;31.0;64.0
21121;DHT22;12519;43.318;21.898;2023-08-20T17:05:09;30.9;64.0
21121;DHT22;12519;43.318;21.898;2023-08-20T17:09:46;30.9;64.0
21121;DHT22;12519;43.318;21.898;2023-08-20T17:14:23;30.8;65.0
21121;DHT22;12519;43.318;21.898;2023-08-20T17:19:00;30.8;65.0
21121;DHT22;12519;43.318;21.898;2023-08-20T17:23:37;30.8;65.0
21121;DHT22;12519;43.318;21.898;2023-08-20T17:28:14;30.7;66.0
21121;DHT22;12519;43.318;21.898;2023-08-20T17:32:51;30.7;66.0
21121;DHT22;12519;43.318;21.898;2023-08-20T17:37:28;30.6;66.0
21121;DHT22;12519;43.318;21.898;2023-08-20T17:42:05;30.6;66.0
21121;DHT22;12519;43.318;21.898;2023-08-20T17:46:45;30.4;67.0
21121;DHT22;12519;43.318;21.898;2023-08-20T17:51:23;30.4;67.0
21121;DHT22;12519;43.318;21.898;2023-08-20T17:56:00;30.2;68.0
21121;DHT22;12519;43.318;21.898;2023-08-20T18:00:36;30.2;68.0
21121;DHT22;12519;43.318;21.898;2023-08-20T18:05:13;30.0;69.0
21121;DHT22;12519;43.318;21.898;2023-08-20T18:09:49;30.0;69.0
21121;DHT22;12519;43.318;21.898;2023-08-20T18:14:25;29.7;70.0
21121;DHT22;12519;43.318;21.898;2023-08-20T18:19:02;29.7;70.0
21121;DHT22;12519;43.318;21.898;2023-08-20T18:23:39;29.7;70.0
21121;DHT22;12519;43.318;21.898;2023-08-20T18:28:16;29.6;71.0
21121;DHT22;12519;43.318;21.898;2023-08-20T18:32:53;29.6;71.0
21121;DHT22;12519;43.318;21.898;2023-08-20T18:37:30;29.4;72.0
21121;DHT22;12519;43.318;21.898;2023-08-20T18:42:07;29.4;72.0
21121;DHT22;12519;43.318;21.898;2023-08-20T18:46:44;29.4;72.0
21121;DHT22;12519;43.318;21.898;2023-08-20T18:51:24;29.4;72.0
21121;DHT22;12519;43.318;21.898;2023-08-20T18:56:03;29.3;73.0
21121;DHT22;12519;43.318;21.898;2023-08-20T19:00:40;29.3;73.0
21121;DHT22;12519;43.318;21.898;2023-08-20T19:05:17;29.0;74.0
21121;DHT22;12519;43.318;21.898;2023-08-20T19:09:53;29.0;74.0
21121;DHT22;12519;43.318;21.898;2023-08-20T19:14:30;28.7;75.0
21121;DHT22;12519;43.318;21.898;2023-08-20T19:19:06;28.7;75.0
21121;DHT22;12519;43.318;21.898;2023-08-20T19:23:43;28.7;75.0
21121;DHT22;12519;43.318;21.898;2023-08-20T19:28:20;28.6;76.0
21121;DHT22;12519;43.318;21.898;2023-08-20T19:32:56;28.6;76.0
21121;DHT22;12519;43.318;21.898;2023-08-20T19:37:33;28.5;76.0
21121;DHT22;12519;43.318;21.898;2023-08-20T19:42:09;28.5;76.0
21121;DHT22;12519;43.318;21.898;2023-08-20T19:46:46;28.4;77.0
21121;DHT22;12519;43.318;21.898;2023-08-20T19:51:23;28.4;77.0
21121;DHT22;12519;43.318;21.898;2023-08-20T19:56:00;28.2;78.0
21121;DHT22;12519;43.318;21.898;2023-08-20T20:00:36;28.2;78.0
21121;DHT22;12519;43.318;21.898;2023-08-20T20:05:14;28.0;78.0
21121;DHT22;12519;43.318;21.898;2023-08-20T20:09:50;28.0;78.0
21121;DHT22;12519;43.318;21.898;2023-08-20T20:14:27;28.0;78.0
21121;DHT22;12519;43.318;21.898;2023-08-20T20:19:04;27.8;79.0
21121;DHT22;12519;43.318;21.898;2023-08-20T20:23:41;27.8;79.0
21121;DHT22;12519;43.318;21.898;2023-08-20T20:28:17;27.6;80.0
21121;DHT22;12519;43.318;21.898;2023-08-20T20:32:58;27.6;80.0
21121;DHT22;12519;43.318;21.898;2023-08-20T20:37:34;27.5;80.0
21121;DHT22;12519;43.318;21.898;2023-08-20T20:42:11;27.5;80.0
21121;DHT22;12519;43.318;21.898;2023-08-20T20:46:47;27.6;80.0
21121;DHT22;12519;43.318;21.898;2023-08-20T20:51:24;27.6;80.0
21121;DHT22;12519;43.318;21.898;2023-08-20T20:56:00;27.8;80.0
21121;DHT22;12519;43.318;21.898;2023-08-20T21:00:37;27.8;80.0
21121;DHT22;12519;43.318;21.898;2023-08-20T21:05:14;27.8;80.0
21121;DHT22;12519;43.318;21.898;2023-08-20T21:09:51;27.8;80.0
21121;DHT22;12519;43.318;21.898;2023-08-20T21:14:28;27.8;80.0
21121;DHT22;12519;43.318;21.898;2023-08-20T21:19:04;27.7;79.0
21121;DHT22;12519;43.318;21.898;2023-08-20T21:23:42;27.7;79.0
21121;DHT22;12519;43.318;21.898;2023-08-20T21:28:19;27.8;79.0
21121;DHT22;12519;43.318;21.898;2023-08-20T21:32:55;27.8;79.0
21121;DHT22;12519;43.318;21.898;2023-08-20T21:37:32;27.8;79.0
21121;DHT22;12519;43.318;21.898;2023-08-20T21:42:09;27.8;79.0
21121;DHT22;12519;43.318;21.898;2023-08-20T21:46:46;27.8;79.0
21121;DHT22;12519;43.318;21.898;2023-08-20T21:51:23;27.8;79.0
21121;DHT22;12519;43.318;21.898;2023-08-20T21:55:59;27.7;78.0
21121;DHT22;12519;43.318;21.898;2023-08-20T22:00:35;27.7;78.0
21121;DHT22;12519;43.318;21.898;2023-08-20T22:05:17;27.6;78.0
21121;DHT22;12519;43.318;21.898;2023-08-20T22:09:56;27.6;78.0
21121;DHT22;12519;43.318;21.898;2023-08-20T22:14:33;27.6;78.0
21121;DHT22;12519;43.318;21.898;2023-08-20T22:19:11;27.6;78.0
21121;DHT22;12519;43.318;21.898;2023-08-20T22:23:48;27.6;78.0
21121;DHT22;12519;43.318;21.898;2023-08-20T22:28:25;27.4;79.0
21121;DHT22;12519;43.318;21.898;2023-08-20T22:33:02;27.4;79.0
21121;DHT22;12519;43.318;21.898;2023-08-20T22:37:39;27.3;79.0
21121;DHT22;12519;43.318;21.898;2023-08-20T22:42:16;27.3;79.0
21121;DHT22;12519;43.318;21.898;2023-08-20T22:46:54;27.2;79.0
21121;DHT22;12519;43.318;21.898;2023-08-20T22:51:31;27.2;79.0
21121;DHT22;12519;43.318;21.898;2023-08-20T22:56:08;27.1;79.0
21121;DHT22;12519;43.318;21.898;2023-08-20T23:00:45;27.1;79.0
21121;DHT22;12519;43.318;21.898;2023-08-20T23:05:24;27.2;79.0
21121;DHT22;12519;43.318;21.898;2023-08-20T23:10:00;27.2;79.0
21121;DHT22;12519;43.318;21.898;2023-08-20T23:14:37;27.2;79.0
21121;DHT22;12519;43.318;21.898;2023-08-20T23:19:13;27.2;79.0
21121;DHT22;12519;43.318;21.898;2023-08-20T23:23:50;27.2;79.0
21121;DHT22;12519;43.318;21.898;2023-08-20T23:28:26;27.0;80.0
21121;DHT22;12519;43.318;21.898;2023-08-20T23:33:04;27.0;80.0
21121;DHT22;12519;43.318;21.898;2023-08-20T23:37:41;26.9;80.0
21121;DHT22;12519;43.318;21.898;2023-08-20T23:42:17;26.9;80.0
21121;DHT22;12519;43.318;21.898;2023-08-20T23:46:54;26.8;80.0
21121;DHT22;12519;43.318;21.898;2023-08-20T23:51:30;26.8;80.0
21121;DHT22;12519;43.318;21.898;2023-08-20T23:56:07;26.8;80.0
